createdAt,value
2019-05-13T00:00:47.756Z,8.30
2019-05-13T00:03:16.747Z,8.30
2019-05-13T00:05:45.695Z,8.30
2019-05-13T00:08:14.738Z,8.00
2019-05-13T00:10:44.812Z,7.90
2019-05-13T00:13:14.661Z,8.00
2019-05-13T00:15:44.462Z,8.00
2019-05-13T00:18:14.344Z,7.80
2019-05-13T00:20:44.495Z,7.60
2019-05-13T00:23:14.330Z,7.50
2019-05-13T00:25:44.475Z,7.60
2019-05-13T00:28:14.520Z,7.60
2019-05-13T00:30:44.558Z,7.70
2019-05-13T00:33:14.125Z,7.70
2019-05-13T00:35:44.252Z,7.70
2019-05-13T00:38:14.087Z,7.80
2019-05-13T00:40:44.334Z,7.60
2019-05-13T00:43:14.431Z,7.60
2019-05-13T00:45:44.559Z,7.40
2019-05-13T00:48:14.353Z,7.40
2019-05-13T00:50:44.224Z,7.40
2019-05-13T00:53:13.707Z,7.50
2019-05-13T00:55:44.498Z,7.30
2019-05-13T00:58:14.005Z,7.00
2019-05-13T01:00:44.625Z,7.00
2019-05-13T01:03:14.472Z,6.90
2019-05-13T01:05:44.507Z,6.80
2019-05-13T01:08:14.531Z,7.00
2019-05-13T01:10:45.149Z,7.00
2019-05-13T01:13:14.589Z,7.00
2019-05-13T01:15:44.358Z,6.80
2019-05-13T01:18:14.254Z,6.70
2019-05-13T01:20:44.083Z,6.50
2019-05-13T01:23:14.084Z,6.50
2019-05-13T01:25:44.429Z,6.40
2019-05-13T01:28:14.083Z,6.60
2019-05-13T01:30:43.971Z,6.60
2019-05-13T01:33:14.513Z,6.50
2019-05-13T01:35:44.506Z,6.40
2019-05-13T01:38:14.085Z,6.40
2019-05-13T01:40:43.951Z,6.50
2019-05-13T01:43:14.396Z,6.50
2019-05-13T01:45:44.273Z,6.60
2019-05-13T01:48:14.127Z,6.50
2019-05-13T01:50:44.433Z,6.60
2019-05-13T01:53:14.538Z,6.00
2019-05-13T01:55:44.432Z,6.10
2019-05-13T01:58:14.572Z,6.00
2019-05-13T02:00:44.525Z,5.60
2019-05-13T02:03:14.689Z,5.80
2019-05-13T02:05:44.340Z,6.00
2019-05-13T02:08:14.261Z,6.00
2019-05-13T02:10:54.838Z,5.90
2019-05-13T02:13:25.036Z,5.60
2019-05-13T02:15:55.802Z,5.50
2019-05-13T02:18:25.352Z,5.50
2019-05-13T02:20:56.086Z,5.50
2019-05-13T02:23:25.362Z,5.50
2019-05-13T02:25:55.025Z,5.40
2019-05-13T02:28:25.113Z,5.20
2019-05-13T02:30:56.885Z,5.20
2019-05-13T02:33:25.648Z,5.60
2019-05-13T02:35:54.936Z,5.60
2019-05-13T02:38:29.765Z,5.60
2019-05-13T02:40:55.482Z,5.70
2019-05-13T02:43:24.642Z,5.60
2019-05-13T02:45:54.644Z,5.60
2019-05-13T02:48:24.335Z,5.50
2019-05-13T02:50:54.225Z,5.60
2019-05-13T02:53:24.434Z,5.30
2019-05-13T02:55:54.069Z,5.40
2019-05-13T02:58:24.750Z,5.30
2019-05-13T03:00:54.476Z,5.30
2019-05-13T03:03:23.997Z,5.20
2019-05-13T03:05:55.325Z,5.30
2019-05-13T03:08:39.098Z,5.40
2019-05-13T03:10:55.300Z,5.30
2019-05-13T03:13:24.520Z,5.20
2019-05-13T03:16:23.121Z,5.20
2019-05-13T03:18:52.644Z,5.30
2019-05-13T03:21:23.222Z,5.10
2019-05-13T03:23:52.855Z,5.20
2019-05-13T03:26:23.454Z,5.10
2019-05-13T03:28:53.219Z,5.20
2019-05-13T03:31:26.217Z,5.20
2019-05-13T03:33:55.971Z,5.10
2019-05-13T03:36:26.385Z,5.10
2019-05-13T03:39:05.317Z,5.10
2019-05-13T03:41:32.731Z,5.00
2019-05-13T03:44:03.807Z,4.80
2019-05-13T03:46:36.040Z,4.90
2019-05-13T03:49:06.714Z,5.00
2019-05-13T03:51:36.007Z,5.10
2019-05-13T03:54:05.377Z,5.10
2019-05-13T03:56:34.756Z,4.90
2019-05-13T03:59:04.383Z,4.70
2019-05-13T04:01:34.258Z,4.60
2019-05-13T04:04:03.712Z,4.80
2019-05-13T04:06:33.075Z,4.80
2019-05-13T04:09:20.901Z,4.80
2019-05-13T04:11:33.723Z,4.80
2019-05-13T04:14:03.627Z,4.60
2019-05-13T04:16:32.935Z,4.50
2019-05-13T04:19:02.710Z,4.60
2019-05-13T04:21:33.730Z,4.60
2019-05-13T04:24:04.207Z,4.50
2019-05-13T04:26:33.770Z,4.50
2019-05-13T04:29:03.362Z,4.60
2019-05-13T04:31:33.523Z,4.80
2019-05-13T04:34:03.477Z,4.50
2019-05-13T04:36:33.424Z,4.50
2019-05-13T04:39:03.569Z,4.40
2019-05-13T04:41:33.445Z,4.30
2019-05-13T04:44:03.107Z,4.00
2019-05-13T04:46:33.237Z,4.00
2019-05-13T04:49:02.699Z,4.20
2019-05-13T04:51:33.076Z,4.40
2019-05-13T04:54:03.093Z,4.40
2019-05-13T04:56:33.070Z,4.30
2019-05-13T04:59:03.268Z,4.40
2019-05-13T05:02:22.528Z,4.60
2019-05-13T05:05:48.280Z,4.70
2019-05-13T05:08:47.412Z,5.00
2019-05-13T05:12:16.898Z,5.20
2019-05-13T05:15:24.699Z,5.40
2019-05-13T05:18:33.371Z,5.40
2019-05-13T05:21:11.953Z,5.60
2019-05-13T05:23:58.060Z,5.80
2019-05-13T05:27:22.829Z,5.90
2019-05-13T05:30:11.359Z,5.90
2019-05-13T05:33:11.329Z,6.00
2019-05-13T05:36:21.977Z,6.10
2019-05-13T05:39:12.335Z,6.30
2019-05-13T05:41:43.804Z,6.40
2019-05-13T05:44:14.254Z,6.20
2019-05-13T05:46:45.097Z,6.40
2019-05-13T05:49:16.681Z,6.50
2019-05-13T05:51:51.501Z,6.60
2019-05-13T05:54:22.449Z,6.60
2019-05-13T05:56:54.543Z,6.70
2019-05-13T05:59:26.087Z,6.80
2019-05-13T06:01:56.861Z,6.90
2019-05-13T06:04:26.568Z,7.00
2019-05-13T06:06:56.512Z,7.10
2019-05-13T06:09:25.595Z,7.30
2019-05-13T06:11:55.034Z,7.30
2019-05-13T06:14:24.378Z,7.40
2019-05-13T06:16:53.439Z,7.50
2019-05-13T06:19:22.692Z,7.60
2019-05-13T06:21:51.976Z,7.70
2019-05-13T06:24:23.528Z,7.80
2019-05-13T06:26:52.096Z,7.90
2019-05-13T06:29:22.247Z,8.00
2019-05-13T06:31:52.049Z,8.10
2019-05-13T06:34:21.748Z,8.20
2019-05-13T06:36:52.281Z,8.20
2019-05-13T06:39:22.181Z,8.30
2019-05-13T06:41:51.880Z,8.40
2019-05-13T06:44:21.490Z,8.40
2019-05-13T06:46:51.662Z,8.50
2019-05-13T06:49:21.644Z,8.60
2019-05-13T06:51:52.732Z,8.50
2019-05-13T06:54:22.078Z,8.70
2019-05-13T06:56:51.787Z,8.70
2019-05-13T06:59:22.369Z,8.70
2019-05-13T07:01:52.316Z,9.00
2019-05-13T07:04:22.042Z,9.20
2019-05-13T07:07:01.095Z,9.50
2019-05-13T07:09:21.902Z,9.70
2019-05-13T07:11:51.868Z,9.70
2019-05-13T07:14:21.879Z,10.00
2019-05-13T07:16:52.393Z,10.40
2019-05-13T07:19:23.920Z,10.60
2019-05-13T07:21:52.635Z,10.70
2019-05-13T07:24:21.782Z,10.90
2019-05-13T07:26:52.310Z,10.90
2019-05-13T07:29:24.217Z,11.10
2019-05-13T07:31:52.454Z,11.20
2019-05-13T07:34:24.508Z,11.30
2019-05-13T07:36:52.604Z,11.90
2019-05-13T07:39:22.443Z,12.20
2019-05-13T07:41:52.145Z,12.50
2019-05-13T07:44:22.360Z,12.40
2019-05-13T07:46:52.263Z,12.60
2019-05-13T07:49:22.498Z,12.60
2019-05-13T07:51:52.224Z,12.90
2019-05-13T07:54:22.143Z,13.10
2019-05-13T07:56:52.367Z,13.20
2019-05-13T07:59:21.585Z,13.50
2019-05-13T08:01:52.195Z,13.80
2019-05-13T08:04:23.695Z,14.10
2019-05-13T08:06:52.538Z,14.20
2019-05-13T08:09:21.782Z,13.90
2019-05-13T08:12:04.441Z,14.10
2019-05-13T08:14:21.848Z,14.00
2019-05-13T08:16:51.771Z,14.10
2019-05-13T08:19:21.802Z,14.20
2019-05-13T08:21:51.463Z,14.30
2019-05-13T08:24:22.660Z,14.00
2019-05-13T08:26:53.168Z,14.50
2019-05-13T08:29:22.415Z,14.40
2019-05-13T08:31:51.936Z,14.30
2019-05-13T08:34:22.606Z,14.30
2019-05-13T08:36:51.709Z,15.10
2019-05-13T08:39:21.668Z,15.70
2019-05-13T08:41:51.562Z,16.00
2019-05-13T08:44:21.598Z,15.90
2019-05-13T08:46:51.950Z,15.60
2019-05-13T08:49:22.018Z,16.00
2019-05-13T08:51:52.715Z,16.10
2019-05-13T08:54:22.183Z,16.50
2019-05-13T08:56:52.010Z,16.80
2019-05-13T08:59:22.217Z,16.70
2019-05-13T09:01:51.971Z,17.10
2019-05-13T09:04:22.286Z,17.50
2019-05-13T09:06:52.408Z,17.70
2019-05-13T09:09:22.099Z,17.90
2019-05-13T09:11:51.687Z,18.00
2019-05-13T09:14:21.894Z,18.30
2019-05-13T09:16:52.547Z,18.20
2019-05-13T09:19:21.690Z,18.10
2019-05-13T09:21:52.620Z,18.40
2019-05-13T09:24:29.020Z,18.30
2019-05-13T09:26:52.743Z,18.50
2019-05-13T09:29:22.597Z,18.30
2019-05-13T09:31:52.158Z,18.10
2019-05-13T09:34:22.126Z,18.40
2019-05-13T09:36:51.928Z,18.50
2019-05-13T09:39:21.708Z,18.50
2019-05-13T09:41:52.204Z,18.70
2019-05-13T09:44:21.851Z,18.90
2019-05-13T09:46:51.630Z,19.00
2019-05-13T09:49:23.630Z,19.40
2019-05-13T09:51:52.276Z,19.50
2019-05-13T09:54:22.300Z,19.10
2019-05-13T09:56:51.955Z,18.80
2019-05-13T09:59:22.157Z,19.20
2019-05-13T10:01:52.019Z,19.60
2019-05-13T10:04:22.288Z,19.90
2019-05-13T10:06:51.518Z,20.00
2019-05-13T10:09:21.740Z,20.30
2019-05-13T10:11:51.934Z,19.90
2019-05-13T10:14:23.013Z,20.20
2019-05-13T10:16:51.940Z,20.60
2019-05-13T10:19:21.588Z,20.80
2019-05-13T10:21:52.395Z,20.50
2019-05-13T10:24:22.341Z,20.20
2019-05-13T10:26:52.496Z,20.50
2019-05-13T10:29:22.428Z,20.90
2019-05-13T10:31:52.557Z,20.60
2019-05-13T10:34:22.478Z,20.60
2019-05-13T10:36:52.284Z,20.80
2019-05-13T10:39:22.317Z,20.90
2019-05-13T10:41:52.511Z,21.10
2019-05-13T10:44:21.563Z,21.40
2019-05-13T10:46:52.165Z,21.10
2019-05-13T10:49:22.167Z,19.50
2019-05-13T10:51:52.714Z,20.40
2019-05-13T10:54:21.982Z,21.00
2019-05-13T10:56:53.166Z,21.10
2019-05-13T10:59:22.966Z,21.20
2019-05-13T11:01:52.283Z,21.50
2019-05-13T11:04:22.208Z,21.50
2019-05-13T11:06:52.579Z,21.40
2019-05-13T11:09:22.575Z,21.70
2019-05-13T11:11:52.726Z,21.80
2019-05-13T11:14:22.510Z,21.90
2019-05-13T11:16:52.535Z,21.80
2019-05-13T11:19:23.121Z,22.40
2019-05-13T11:21:52.507Z,22.20
2019-05-13T11:24:22.710Z,22.20
2019-05-13T11:26:52.966Z,22.60
2019-05-13T11:29:23.141Z,21.80
2019-05-13T11:31:52.856Z,22.40
2019-05-13T11:34:22.686Z,22.40
2019-05-13T11:36:53.208Z,22.30
2019-05-13T11:39:22.568Z,22.40
2019-05-13T11:41:51.575Z,21.70
2019-05-13T11:44:22.768Z,21.60
2019-05-13T11:46:53.070Z,21.30
2019-05-13T11:49:22.069Z,21.30
2019-05-13T11:51:51.908Z,21.90
2019-05-13T11:54:22.342Z,22.00
2019-05-13T11:57:01.216Z,22.30
2019-05-13T11:59:22.292Z,22.10
2019-05-13T12:01:53.833Z,22.40
2019-05-13T12:04:24.164Z,22.60
2019-05-13T12:06:54.411Z,22.30
2019-05-13T12:09:23.704Z,22.20
2019-05-13T12:11:52.733Z,22.40
2019-05-13T12:14:42.844Z,21.40
2019-05-13T12:16:52.394Z,21.90
2019-05-13T12:19:22.020Z,21.70
2019-05-13T12:21:54.029Z,22.20
2019-05-13T12:24:22.812Z,22.50
2019-05-13T12:26:53.293Z,22.30
2019-05-13T12:29:22.793Z,22.70
2019-05-13T12:31:52.645Z,22.60
2019-05-13T12:34:23.001Z,22.50
2019-05-13T12:36:52.141Z,23.20
2019-05-13T12:39:23.951Z,23.20
2019-05-13T12:41:53.837Z,23.50
2019-05-13T12:44:22.965Z,23.30
2019-05-13T12:46:54.411Z,22.10
2019-05-13T12:49:23.000Z,22.40
2019-05-13T12:51:59.725Z,22.90
2019-05-13T12:54:23.665Z,21.80
2019-05-13T12:56:52.855Z,22.50
2019-05-13T12:59:22.378Z,22.70
2019-05-13T13:01:52.657Z,22.50
2019-05-13T13:04:23.893Z,22.20
2019-05-13T13:06:53.384Z,21.10
2019-05-13T13:09:22.695Z,21.80
2019-05-13T13:11:54.429Z,22.20
2019-05-13T13:14:22.892Z,21.90
2019-05-13T13:16:53.949Z,21.10
2019-05-13T13:19:22.538Z,20.90
2019-05-13T13:21:53.541Z,21.60
2019-05-13T13:24:23.804Z,21.90
2019-05-13T13:26:54.115Z,21.60
2019-05-13T13:29:23.520Z,21.40
2019-05-13T13:31:55.486Z,21.80
2019-05-13T13:34:26.203Z,21.60
2019-05-13T13:36:54.183Z,21.20
2019-05-13T13:39:25.469Z,21.10
2019-05-13T13:41:53.929Z,21.00
2019-05-13T13:44:24.517Z,21.00
2019-05-13T13:46:55.025Z,20.20
2019-05-13T13:49:24.268Z,20.30
2019-05-13T13:51:53.300Z,19.80
2019-05-13T13:54:22.642Z,20.20
2019-05-13T13:56:55.805Z,19.90
2019-05-13T13:59:24.542Z,19.90
2019-05-13T14:01:54.999Z,20.10
2019-05-13T14:04:24.037Z,20.10
2019-05-13T14:07:22.954Z,20.30
2019-05-13T14:09:23.807Z,20.40
2019-05-13T14:11:52.635Z,20.20
2019-05-13T14:14:21.713Z,20.30
2019-05-13T14:16:51.814Z,20.40
2019-05-13T14:19:21.868Z,20.20
2019-05-13T14:21:52.528Z,20.10
2019-05-13T14:24:21.894Z,19.90
2019-05-13T14:26:52.410Z,19.70
2019-05-13T14:29:36.318Z,19.60
2019-05-13T14:31:52.306Z,19.30
2019-05-13T14:34:21.292Z,19.30
2019-05-13T14:36:51.782Z,19.40
2019-05-13T14:39:23.284Z,19.40
2019-05-13T14:41:52.154Z,18.80
2019-05-13T14:44:22.091Z,18.60
2019-05-13T14:46:52.307Z,18.50
2019-05-13T14:49:22.466Z,18.60
2019-05-13T14:51:53.091Z,19.10
2019-05-13T14:54:22.612Z,19.20
2019-05-13T14:56:52.238Z,19.10
2019-05-13T14:59:22.056Z,18.90
2019-05-13T15:01:51.987Z,19.10
2019-05-13T15:04:22.297Z,19.40
2019-05-13T15:06:51.909Z,19.40
2019-05-13T15:09:22.249Z,19.30
2019-05-13T15:11:52.785Z,19.30
2019-05-13T15:14:22.149Z,19.00
2019-05-13T15:17:02.265Z,18.80
2019-05-13T15:19:22.384Z,18.70
2019-05-13T15:21:52.204Z,18.50
2019-05-13T15:24:21.812Z,18.50
2019-05-13T15:26:51.763Z,18.30
2019-05-13T15:29:22.303Z,18.20
2019-05-13T15:31:51.710Z,18.40
2019-05-13T15:34:20.749Z,18.40
2019-05-13T15:36:50.980Z,18.40
2019-05-13T15:39:20.495Z,18.30
2019-05-13T15:41:52.168Z,18.40
2019-05-13T15:44:21.960Z,18.30
2019-05-13T15:46:52.337Z,18.50
2019-05-13T15:49:22.142Z,18.30
2019-05-13T15:51:51.285Z,18.20
2019-05-13T15:54:22.116Z,18.30
2019-05-13T15:56:50.943Z,18.00
2019-05-13T15:59:21.552Z,17.90
2019-05-13T16:01:52.480Z,18.10
2019-05-13T16:04:21.456Z,18.10
2019-05-13T16:06:52.102Z,18.20
2019-05-13T16:09:21.532Z,18.00
2019-05-13T16:11:52.187Z,18.20
2019-05-13T16:14:22.011Z,18.40
2019-05-13T16:16:51.081Z,18.20
2019-05-13T16:19:22.040Z,17.90
2019-05-13T16:21:51.804Z,18.20
2019-05-13T16:24:21.616Z,18.50
2019-05-13T16:26:52.139Z,18.80
2019-05-13T16:29:22.435Z,18.90
2019-05-13T16:31:52.003Z,19.00
2019-05-13T16:34:22.262Z,19.20
2019-05-13T16:36:53.034Z,19.40
2019-05-13T16:39:22.285Z,19.60
2019-05-13T16:41:51.779Z,19.80
2019-05-13T16:44:22.446Z,19.30
2019-05-13T16:46:51.604Z,19.10
2019-05-13T16:49:21.307Z,19.30
2019-05-13T16:51:51.765Z,19.50
2019-05-13T16:54:22.052Z,19.90
2019-05-13T16:56:51.886Z,19.90
2019-05-13T16:59:21.218Z,19.80
2019-05-13T17:01:51.247Z,19.90
2019-05-13T17:04:21.501Z,20.00
2019-05-13T17:06:52.988Z,19.90
2019-05-13T17:09:21.609Z,19.50
2019-05-13T17:11:51.921Z,19.50
2019-05-13T17:14:21.569Z,19.40
2019-05-13T17:16:51.849Z,19.50
2019-05-13T17:19:21.380Z,19.60
2019-05-13T17:21:52.007Z,19.60
2019-05-13T17:24:22.595Z,19.40
2019-05-13T17:26:52.312Z,19.40
2019-05-13T17:29:21.441Z,19.70
2019-05-13T17:31:51.517Z,19.60
2019-05-13T17:34:21.168Z,19.50
2019-05-13T17:36:51.943Z,19.30
2019-05-13T17:39:21.393Z,19.30
2019-05-13T17:41:52.208Z,19.00
2019-05-13T17:44:21.984Z,18.50
2019-05-13T17:46:52.196Z,18.20
2019-05-13T17:49:22.180Z,18.10
2019-05-13T17:51:51.786Z,17.70
2019-05-13T17:54:22.144Z,17.60
2019-05-13T17:56:51.319Z,17.50
2019-05-13T17:59:21.794Z,17.40
2019-05-13T18:01:51.651Z,17.20
2019-05-13T18:04:22.612Z,16.90
2019-05-13T18:06:52.360Z,16.80
2019-05-13T18:09:22.347Z,16.90
2019-05-13T18:11:52.810Z,16.80
2019-05-13T18:14:21.854Z,16.80
2019-05-13T18:16:50.702Z,16.50
2019-05-13T18:19:19.586Z,16.40
2019-05-13T18:21:48.600Z,16.30
2019-05-13T18:24:17.537Z,16.10
2019-05-13T18:26:46.415Z,16.10
2019-05-13T18:29:15.492Z,16.20
2019-05-13T18:31:44.456Z,16.10
2019-05-13T18:34:13.314Z,15.90
2019-05-13T18:36:42.772Z,15.90
2019-05-13T18:39:12.509Z,15.80
2019-05-13T18:41:41.643Z,15.80
2019-05-13T18:44:12.274Z,15.80
2019-05-13T18:46:41.923Z,15.80
2019-05-13T18:49:12.048Z,15.60
2019-05-13T18:51:42.270Z,15.40
2019-05-13T18:54:12.128Z,15.30
2019-05-13T18:56:41.785Z,15.30
2019-05-13T18:59:12.617Z,15.40
2019-05-13T19:01:41.984Z,15.40
2019-05-13T19:04:11.559Z,15.30
2019-05-13T19:06:42.296Z,15.20
2019-05-13T19:09:11.852Z,15.30
2019-05-13T19:11:42.770Z,15.30
2019-05-13T19:14:13.271Z,15.00
2019-05-13T19:16:42.476Z,15.00
2019-05-13T19:19:15.569Z,14.90
2019-05-13T19:21:42.256Z,14.80
2019-05-13T19:24:13.407Z,14.70
2019-05-13T19:26:42.534Z,14.70
2019-05-13T19:29:11.696Z,14.50
2019-05-13T19:31:41.789Z,14.50
2019-05-13T19:34:12.462Z,14.50
2019-05-13T19:36:41.857Z,14.30
2019-05-13T19:39:11.526Z,14.20
2019-05-13T19:41:42.343Z,14.30
2019-05-13T19:44:12.104Z,14.20
2019-05-13T19:46:42.081Z,14.10
2019-05-13T19:49:28.740Z,14.00
2019-05-13T19:51:45.315Z,14.00
2019-05-13T19:54:14.545Z,13.80
2019-05-13T19:56:43.683Z,13.70
2019-05-13T19:59:12.652Z,13.70
2019-05-13T20:01:42.425Z,13.70
2019-05-13T20:04:11.859Z,13.80
2019-05-13T20:06:41.611Z,13.80
2019-05-13T20:09:10.995Z,13.60
2019-05-13T20:11:41.936Z,13.50
2019-05-13T20:14:12.142Z,13.50
2019-05-13T20:16:41.839Z,13.40
2019-05-13T20:19:11.840Z,13.20
2019-05-13T20:21:42.560Z,13.30
2019-05-13T20:24:11.995Z,13.20
2019-05-13T20:26:41.555Z,13.10
2019-05-13T20:29:12.411Z,13.20
2019-05-13T20:31:41.716Z,13.10
2019-05-13T20:34:11.845Z,13.00
2019-05-13T20:36:42.245Z,12.90
2019-05-13T20:39:11.649Z,12.90
2019-05-13T20:41:41.458Z,12.90
2019-05-13T20:44:13.574Z,12.80
2019-05-13T20:46:42.722Z,12.80
2019-05-13T20:49:12.170Z,12.80
2019-05-13T20:51:41.579Z,12.70
2019-05-13T20:54:11.374Z,12.60
2019-05-13T20:56:42.263Z,12.40
2019-05-13T20:59:11.466Z,12.40
2019-05-13T21:01:41.874Z,12.20
2019-05-13T21:04:12.344Z,12.20
2019-05-13T21:06:42.210Z,12.20
2019-05-13T21:09:16.721Z,12.30
2019-05-13T21:11:42.360Z,12.20
2019-05-13T21:14:11.664Z,12.10
2019-05-13T21:16:41.660Z,12.10
2019-05-13T21:19:12.430Z,12.00
2019-05-13T21:21:41.762Z,11.80
2019-05-13T21:24:11.039Z,11.70
2019-05-13T21:26:42.016Z,11.80
2019-05-13T21:29:11.178Z,11.80
2019-05-13T21:31:41.460Z,11.80
2019-05-13T21:34:11.936Z,11.70
2019-05-13T21:36:41.407Z,11.80
2019-05-13T21:39:12.454Z,11.80
2019-05-13T21:41:41.541Z,11.60
2019-05-13T21:44:11.901Z,11.40
2019-05-13T21:46:41.349Z,11.30
2019-05-13T21:49:11.902Z,11.30
2019-05-13T21:51:46.477Z,11.20
2019-05-13T21:54:17.677Z,11.20
2019-05-13T21:56:46.825Z,11.20
2019-05-13T21:59:16.530Z,11.20
2019-05-13T22:01:45.809Z,11.10
2019-05-13T22:04:15.654Z,11.00
2019-05-13T22:06:45.242Z,10.90
2019-05-13T22:09:14.317Z,10.90
2019-05-13T22:11:43.635Z,10.90
2019-05-13T22:14:12.652Z,10.90
2019-05-13T22:16:41.760Z,10.90
2019-05-13T22:19:12.437Z,11.00
2019-05-13T22:21:42.403Z,10.90
2019-05-13T22:24:11.902Z,11.00
2019-05-13T22:26:42.100Z,11.00
2019-05-13T22:29:11.703Z,10.80
2019-05-13T22:31:41.997Z,10.80
2019-05-13T22:34:12.109Z,11.00
2019-05-13T22:36:41.456Z,10.90
2019-05-13T22:39:11.546Z,11.00
2019-05-13T22:41:42.145Z,10.80
2019-05-13T22:44:11.856Z,10.70
2019-05-13T22:46:41.391Z,10.80
2019-05-13T22:49:11.682Z,10.70
2019-05-13T22:51:41.302Z,10.60
2019-05-13T22:54:11.972Z,10.60
2019-05-13T22:56:41.602Z,10.60
2019-05-13T22:59:12.238Z,10.60
2019-05-13T23:01:42.089Z,10.40
2019-05-13T23:04:11.613Z,10.50
2019-05-13T23:06:40.846Z,10.50
2019-05-13T23:09:12.321Z,10.50
2019-05-13T23:11:41.810Z,10.40
2019-05-13T23:14:13.576Z,10.40
2019-05-13T23:16:42.464Z,10.30
2019-05-13T23:19:12.573Z,10.30
2019-05-13T23:21:42.064Z,10.20
2019-05-13T23:27:11.074Z,10.00
2019-05-13T23:29:41.253Z,10.00
2019-05-13T23:32:12.073Z,9.80
2019-05-13T23:35:07.622Z,9.70
2019-05-13T23:37:41.696Z,9.80
2019-05-13T23:40:33.022Z,9.70
2019-05-13T23:43:11.301Z,9.60
2019-05-13T23:45:41.712Z,9.50
2019-05-13T23:48:10.938Z,9.60
2019-05-13T23:50:41.499Z,9.50
2019-05-13T23:53:10.575Z,9.40
2019-05-13T23:55:41.406Z,9.40
2019-05-13T23:58:12.180Z,9.50
